sensor_id;sensor_type;location;lat;lon;timestamp;temperature;humidity
33207;DHT22;19565;46.602;11.534;2022-10-31T00:00:48;12.60;99.90
33207;DHT22;19565;46.602;11.534;2022-10-31T00:03:16;12.50;99.90
33207;DHT22;19565;46.602;11.534;2022-10-31T00:05:46;12.50;99.90
33207;DHT22;19565;46.602;11.534;2022-10-31T00:08:15;12.50;99.90
33207;DHT22;19565;46.602;11.534;2022-10-31T00:10:45;12.60;99.90
33207;DHT22;19565;46.602;11.534;2022-10-31T00:13:13;12.60;99.90
33207;DHT22;19565;46.602;11.534;2022-10-31T00:15:42;12.60;99.90
33207;DHT22;19565;46.602;11.534;2022-10-31T00:18:10;12.60;99.90
33207;DHT22;19565;46.602;11.534;2022-10-31T00:20:39;12.60;99.90
33207;DHT22;19565;46.602;11.534;2022-10-31T00:23:07;12.70;99.90
33207;DHT22;19565;46.602;11.534;2022-10-31T00:25:36;12.70;99.90
33207;DHT22;19565;46.602;11.534;2022-10-31T00:28:10;12.70;99.90
33207;DHT22;19565;46.602;11.534;2022-10-31T00:30:39;12.60;99.90
33207;DHT22;19565;46.602;11.534;2022-10-31T00:33:07;12.60;99.90
33207;DHT22;19565;46.602;11.534;2022-10-31T00:35:35;12.60;99.90
33207;DHT22;19565;46.602;11.534;2022-10-31T00:38:03;12.50;99.90
33207;DHT22;19565;46.602;11.534;2022-10-31T00:40:31;12.60;99.90
33207;DHT22;19565;46.602;11.534;2022-10-31T00:42:59;12.60;99.90
33207;DHT22;19565;46.602;11.534;2022-10-31T00:45:30;12.50;99.90
33207;DHT22;19565;46.602;11.534;2022-10-31T00:47:58;12.60;99.90
33207;DHT22;19565;46.602;11.534;2022-10-31T00:50:27;12.60;99.90
33207;DHT22;19565;46.602;11.534;2022-10-31T00:52:54;12.50;99.90
33207;DHT22;19565;46.602;11.534;2022-10-31T00:55:25;12.50;99.90
33207;DHT22;19565;46.602;11.534;2022-10-31T00:57:53;12.40;99.90
33207;DHT22;19565;46.602;11.534;2022-10-31T01:00:21;12.30;99.90
33207;DHT22;19565;46.602;11.534;2022-10-31T01:02:50;12.30;99.90
33207;DHT22;19565;46.602;11.534;2022-10-31T01:05:19;12.30;99.90
33207;DHT22;19565;46.602;11.534;2022-10-31T01:07:47;12.20;99.90
33207;DHT22;19565;46.602;11.534;2022-10-31T01:10:15;12.00;99.90
33207;DHT22;19565;46.602;11.534;2022-10-31T01:12:45;11.80;99.90
33207;DHT22;19565;46.602;11.534;2022-10-31T01:15:15;11.80;99.90
33207;DHT22;19565;46.602;11.534;2022-10-31T01:17:44;11.70;99.90
33207;DHT22;19565;46.602;11.534;2022-10-31T01:20:15;11.70;99.90
33207;DHT22;19565;46.602;11.534;2022-10-31T01:22:43;11.80;99.90
33207;DHT22;19565;46.602;11.534;2022-10-31T01:25:11;11.90;99.90
33207;DHT22;19565;46.602;11.534;2022-10-31T01:27:41;12.00;99.90
33207;DHT22;19565;46.602;11.534;2022-10-31T01:30:10;12.00;99.90
33207;DHT22;19565;46.602;11.534;2022-10-31T01:32:38;12.00;99.90
33207;DHT22;19565;46.602;11.534;2022-10-31T01:35:07;12.10;99.90
33207;DHT22;19565;46.602;11.534;2022-10-31T01:37:36;12.10;99.90
33207;DHT22;19565;46.602;11.534;2022-10-31T01:40:05;12.20;99.90
33207;DHT22;19565;46.602;11.534;2022-10-31T01:42:33;12.10;99.90
33207;DHT22;19565;46.602;11.534;2022-10-31T01:45:02;12.10;99.90
33207;DHT22;19565;46.602;11.534;2022-10-31T01:47:34;12.00;99.90
33207;DHT22;19565;46.602;11.534;2022-10-31T01:50:11;12.10;99.90
33207;DHT22;19565;46.602;11.534;2022-10-31T01:52:44;12.20;99.90
33207;DHT22;19565;46.602;11.534;2022-10-31T01:55:16;12.20;99.90
33207;DHT22;19565;46.602;11.534;2022-10-31T01:57:47;12.20;99.90
33207;DHT22;19565;46.602;11.534;2022-10-31T02:00:17;12.30;99.90
33207;DHT22;19565;46.602;11.534;2022-10-31T02:02:46;12.30;99.90
33207;DHT22;19565;46.602;11.534;2022-10-31T02:05:18;12.30;99.90
33207;DHT22;19565;46.602;11.534;2022-10-31T02:07:53;12.20;99.90
33207;DHT22;19565;46.602;11.534;2022-10-31T02:10:23;12.20;99.90
33207;DHT22;19565;46.602;11.534;2022-10-31T02:12:53;12.10;99.90
33207;DHT22;19565;46.602;11.534;2022-10-31T02:15:23;12.10;99.90
33207;DHT22;19565;46.602;11.534;2022-10-31T02:17:51;12.10;99.90
33207;DHT22;19565;46.602;11.534;2022-10-31T02:20:21;12.20;99.90
33207;DHT22;19565;46.602;11.534;2022-10-31T02:26:13;12.10;99.90
33207;DHT22;19565;46.602;11.534;2022-10-31T02:29:06;12.20;99.90
33207;DHT22;19565;46.602;11.534;2022-10-31T02:31:48;12.10;99.90
33207;DHT22;19565;46.602;11.534;2022-10-31T02:34:21;12.00;99.90
33207;DHT22;19565;46.602;11.534;2022-10-31T02:36:55;12.00;99.90
33207;DHT22;19565;46.602;11.534;2022-10-31T02:39:27;12.00;99.90
33207;DHT22;19565;46.602;11.534;2022-10-31T02:42:03;12.00;99.90
33207;DHT22;19565;46.602;11.534;2022-10-31T02:44:36;12.10;99.90
33207;DHT22;19565;46.602;11.534;2022-10-31T02:47:09;12.00;99.90
33207;DHT22;19565;46.602;11.534;2022-10-31T02:49:45;12.00;99.90
33207;DHT22;19565;46.602;11.534;2022-10-31T02:52:17;11.80;99.90
33207;DHT22;19565;46.602;11.534;2022-10-31T02:54:46;11.80;99.90
33207;DHT22;19565;46.602;11.534;2022-10-31T02:57:17;11.80;99.90
33207;DHT22;19565;46.602;11.534;2022-10-31T02:59:48;11.80;99.90
33207;DHT22;19565;46.602;11.534;2022-10-31T03:02:29;11.90;99.90
33207;DHT22;19565;46.602;11.534;2022-10-31T03:05:16;11.90;99.90
33207;DHT22;19565;46.602;11.534;2022-10-31T03:07:54;11.90;99.90
33207;DHT22;19565;46.602;11.534;2022-10-31T03:10:31;12.00;99.90
33207;DHT22;19565;46.602;11.534;2022-10-31T03:13:09;12.10;99.90
33207;DHT22;19565;46.602;11.534;2022-10-31T03:15:42;12.00;99.90
33207;DHT22;19565;46.602;11.534;2022-10-31T03:18:15;12.10;99.90
33207;DHT22;19565;46.602;11.534;2022-10-31T03:20:48;12.10;99.90
33207;DHT22;19565;46.602;11.534;2022-10-31T03:23:19;12.10;99.90
33207;DHT22;19565;46.602;11.534;2022-10-31T03:25:48;12.10;99.90
33207;DHT22;19565;46.602;11.534;2022-10-31T03:28:19;12.00;99.90
33207;DHT22;19565;46.602;11.534;2022-10-31T03:30:50;12.10;99.90
33207;DHT22;19565;46.602;11.534;2022-10-31T03:33:25;12.10;99.90
33207;DHT22;19565;46.602;11.534;2022-10-31T03:35:55;12.10;99.90
33207;DHT22;19565;46.602;11.534;2022-10-31T03:38:25;12.00;99.90
33207;DHT22;19565;46.602;11.534;2022-10-31T03:40:54;11.90;99.90
33207;DHT22;19565;46.602;11.534;2022-10-31T03:43:29;11.90;99.90
33207;DHT22;19565;46.602;11.534;2022-10-31T03:45:58;11.80;99.90
33207;DHT22;19565;46.602;11.534;2022-10-31T03:48:27;11.80;99.90
33207;DHT22;19565;46.602;11.534;2022-10-31T03:50:59;11.80;99.90
33207;DHT22;19565;46.602;11.534;2022-10-31T03:53:33;11.50;99.90
33207;DHT22;19565;46.602;11.534;2022-10-31T03:56:06;11.60;99.90
33207;DHT22;19565;46.602;11.534;2022-10-31T03:58:40;11.60;99.90
33207;DHT22;19565;46.602;11.534;2022-10-31T04:01:12;11.60;99.90
33207;DHT22;19565;46.602;11.534;2022-10-31T04:03:44;11.70;99.90
33207;DHT22;19565;46.602;11.534;2022-10-31T04:06:15;11.80;99.90
33207;DHT22;19565;46.602;11.534;2022-10-31T04:08:49;11.70;99.90
33207;DHT22;19565;46.602;11.534;2022-10-31T04:11:22;11.50;99.90
33207;DHT22;19565;46.602;11.534;2022-10-31T04:13:52;11.60;99.90
33207;DHT22;19565;46.602;11.534;2022-10-31T04:16:21;11.70;99.90
33207;DHT22;19565;46.602;11.534;2022-10-31T04:18:52;11.70;99.90
33207;DHT22;19565;46.602;11.534;2022-10-31T04:21:26;11.60;99.90
33207;DHT22;19565;46.602;11.534;2022-10-31T04:23:56;11.50;99.90
33207;DHT22;19565;46.602;11.534;2022-10-31T04:26:24;11.40;99.90
33207;DHT22;19565;46.602;11.534;2022-10-31T04:28:52;11.20;99.90
33207;DHT22;19565;46.602;11.534;2022-10-31T04:31:21;11.10;99.90
33207;DHT22;19565;46.602;11.534;2022-10-31T04:33:49;10.90;99.90
33207;DHT22;19565;46.602;11.534;2022-10-31T04:36:19;11.00;99.90
33207;DHT22;19565;46.602;11.534;2022-10-31T04:38:47;10.80;99.90
33207;DHT22;19565;46.602;11.534;2022-10-31T04:41:16;10.90;99.90
33207;DHT22;19565;46.602;11.534;2022-10-31T04:43:43;11.00;99.90
33207;DHT22;19565;46.602;11.534;2022-10-31T04:46:11;11.10;99.90
33207;DHT22;19565;46.602;11.534;2022-10-31T04:48:39;11.00;99.90
33207;DHT22;19565;46.602;11.534;2022-10-31T04:51:08;11.20;99.90
33207;DHT22;19565;46.602;11.534;2022-10-31T04:53:37;11.30;99.90
33207;DHT22;19565;46.602;11.534;2022-10-31T04:56:05;11.30;99.90
33207;DHT22;19565;46.602;11.534;2022-10-31T04:58:33;11.40;99.90
33207;DHT22;19565;46.602;11.534;2022-10-31T05:01:04;11.50;99.90
33207;DHT22;19565;46.602;11.534;2022-10-31T05:03:32;11.30;99.90
33207;DHT22;19565;46.602;11.534;2022-10-31T05:06:00;11.40;99.90
33207;DHT22;19565;46.602;11.534;2022-10-31T05:08:28;11.40;99.90
33207;DHT22;19565;46.602;11.534;2022-10-31T05:11:00;11.40;99.90
33207;DHT22;19565;46.602;11.534;2022-10-31T05:13:30;11.50;99.90
33207;DHT22;19565;46.602;11.534;2022-10-31T05:15:58;11.60;99.90
33207;DHT22;19565;46.602;11.534;2022-10-31T05:18:26;11.60;99.90
33207;DHT22;19565;46.602;11.534;2022-10-31T05:20:54;11.60;99.90
33207;DHT22;19565;46.602;11.534;2022-10-31T05:23:22;11.60;99.90
33207;DHT22;19565;46.602;11.534;2022-10-31T05:25:50;11.60;99.90
33207;DHT22;19565;46.602;11.534;2022-10-31T05:28:20;11.60;99.90
33207;DHT22;19565;46.602;11.534;2022-10-31T05:30:47;11.50;99.90
33207;DHT22;19565;46.602;11.534;2022-10-31T05:33:17;11.50;99.90
33207;DHT22;19565;46.602;11.534;2022-10-31T05:35:45;11.20;99.90
33207;DHT22;19565;46.602;11.534;2022-10-31T05:38:13;11.10;99.90
33207;DHT22;19565;46.602;11.534;2022-10-31T05:40:41;11.30;99.90
33207;DHT22;19565;46.602;11.534;2022-10-31T05:43:09;11.30;99.90
33207;DHT22;19565;46.602;11.534;2022-10-31T05:45:38;11.20;99.90
33207;DHT22;19565;46.602;11.534;2022-10-31T05:48:07;11.20;99.90
33207;DHT22;19565;46.602;11.534;2022-10-31T05:50:37;11.20;99.90
33207;DHT22;19565;46.602;11.534;2022-10-31T05:53:05;11.20;99.90
33207;DHT22;19565;46.602;11.534;2022-10-31T05:55:33;11.10;99.90
33207;DHT22;19565;46.602;11.534;2022-10-31T05:58:01;11.10;99.90
33207;DHT22;19565;46.602;11.534;2022-10-31T06:00:30;11.00;99.90
33207;DHT22;19565;46.602;11.534;2022-10-31T06:03:00;11.00;99.90
33207;DHT22;19565;46.602;11.534;2022-10-31T06:05:28;10.90;99.90
33207;DHT22;19565;46.602;11.534;2022-10-31T06:07:57;10.90;99.90
33207;DHT22;19565;46.602;11.534;2022-10-31T06:10:26;11.00;99.90
33207;DHT22;19565;46.602;11.534;2022-10-31T06:12:54;11.00;99.90
33207;DHT22;19565;46.602;11.534;2022-10-31T06:15:22;11.10;99.90
33207;DHT22;19565;46.602;11.534;2022-10-31T06:18:00;11.10;99.90
33207;DHT22;19565;46.602;11.534;2022-10-31T06:20:29;10.90;99.90
33207;DHT22;19565;46.602;11.534;2022-10-31T06:22:57;10.90;99.90
33207;DHT22;19565;46.602;11.534;2022-10-31T06:25:26;11.00;99.90
33207;DHT22;19565;46.602;11.534;2022-10-31T06:27:55;10.90;99.90
33207;DHT22;19565;46.602;11.534;2022-10-31T06:30:24;10.80;99.90
33207;DHT22;19565;46.602;11.534;2022-10-31T06:32:52;10.90;99.90
33207;DHT22;19565;46.602;11.534;2022-10-31T06:35:21;10.80;99.90
33207;DHT22;19565;46.602;11.534;2022-10-31T06:37:52;10.70;99.90
33207;DHT22;19565;46.602;11.534;2022-10-31T06:40:21;10.60;99.90
33207;DHT22;19565;46.602;11.534;2022-10-31T06:42:56;10.40;99.90
33207;DHT22;19565;46.602;11.534;2022-10-31T06:45:24;10.30;99.90
33207;DHT22;19565;46.602;11.534;2022-10-31T06:47:52;10.20;99.90
33207;DHT22;19565;46.602;11.534;2022-10-31T06:50:44;10.10;99.90
33207;DHT22;19565;46.602;11.534;2022-10-31T06:53:12;10.20;99.90
33207;DHT22;19565;46.602;11.534;2022-10-31T06:55:41;10.20;99.90
33207;DHT22;19565;46.602;11.534;2022-10-31T06:58:10;10.30;99.90
33207;DHT22;19565;46.602;11.534;2022-10-31T07:00:38;10.20;99.90
33207;DHT22;19565;46.602;11.534;2022-10-31T07:03:09;10.30;99.90
33207;DHT22;19565;46.602;11.534;2022-10-31T07:05:38;10.30;99.90
33207;DHT22;19565;46.602;11.534;2022-10-31T07:08:10;10.50;99.90
33207;DHT22;19565;46.602;11.534;2022-10-31T07:10:39;10.60;99.90
33207;DHT22;19565;46.602;11.534;2022-10-31T07:13:10;10.70;99.90
33207;DHT22;19565;46.602;11.534;2022-10-31T07:15:40;10.70;99.90
33207;DHT22;19565;46.602;11.534;2022-10-31T07:18:09;10.90;99.90
33207;DHT22;19565;46.602;11.534;2022-10-31T07:20:38;11.00;99.90
33207;DHT22;19565;46.602;11.534;2022-10-31T07:23:08;10.90;99.90
33207;DHT22;19565;46.602;11.534;2022-10-31T07:25:36;10.80;99.90
33207;DHT22;19565;46.602;11.534;2022-10-31T07:28:04;10.60;99.90
33207;DHT22;19565;46.602;11.534;2022-10-31T07:30:32;10.50;99.90
33207;DHT22;19565;46.602;11.534;2022-10-31T07:33:00;10.60;99.90
33207;DHT22;19565;46.602;11.534;2022-10-31T07:35:29;10.80;99.90
33207;DHT22;19565;46.602;11.534;2022-10-31T07:38:05;10.80;99.90
33207;DHT22;19565;46.602;11.534;2022-10-31T07:40:35;10.70;99.90
33207;DHT22;19565;46.602;11.534;2022-10-31T07:43:03;10.80;99.90
33207;DHT22;19565;46.602;11.534;2022-10-31T07:45:38;11.00;99.90
33207;DHT22;19565;46.602;11.534;2022-10-31T07:48:06;11.10;99.90
33207;DHT22;19565;46.602;11.534;2022-10-31T07:50:35;11.20;99.90
33207;DHT22;19565;46.602;11.534;2022-10-31T07:53:04;11.30;99.90
33207;DHT22;19565;46.602;11.534;2022-10-31T07:55:33;11.30;99.90
33207;DHT22;19565;46.602;11.534;2022-10-31T07:58:04;11.40;99.90
33207;DHT22;19565;46.602;11.534;2022-10-31T08:00:33;11.40;99.90
33207;DHT22;19565;46.602;11.534;2022-10-31T08:03:03;11.50;99.90
33207;DHT22;19565;46.602;11.534;2022-10-31T08:05:32;11.50;99.90
33207;DHT22;19565;46.602;11.534;2022-10-31T08:08:00;11.60;99.90
33207;DHT22;19565;46.602;11.534;2022-10-31T08:10:29;11.60;99.90
33207;DHT22;19565;46.602;11.534;2022-10-31T08:12:59;11.60;99.90
33207;DHT22;19565;46.602;11.534;2022-10-31T08:15:29;11.60;99.90
33207;DHT22;19565;46.602;11.534;2022-10-31T08:17:57;11.70;99.90
33207;DHT22;19565;46.602;11.534;2022-10-31T08:20:25;11.60;99.90
33207;DHT22;19565;46.602;11.534;2022-10-31T08:22:58;11.70;99.90
33207;DHT22;19565;46.602;11.534;2022-10-31T08:25:27;11.80;99.90
33207;DHT22;19565;46.602;11.534;2022-10-31T08:28:01;11.80;99.90
33207;DHT22;19565;46.602;11.534;2022-10-31T08:30:33;11.90;99.90
33207;DHT22;19565;46.602;11.534;2022-10-31T08:33:03;11.90;99.90
33207;DHT22;19565;46.602;11.534;2022-10-31T08:35:31;12.00;99.90
33207;DHT22;19565;46.602;11.534;2022-10-31T08:38:00;12.00;99.90
33207;DHT22;19565;46.602;11.534;2022-10-31T08:40:31;12.00;99.90
33207;DHT22;19565;46.602;11.534;2022-10-31T08:43:01;12.10;99.90
33207;DHT22;19565;46.602;11.534;2022-10-31T08:45:33;12.10;99.90
33207;DHT22;19565;46.602;11.534;2022-10-31T08:48:03;12.10;99.90
33207;DHT22;19565;46.602;11.534;2022-10-31T08:50:33;12.20;99.90
33207;DHT22;19565;46.602;11.534;2022-10-31T08:53:03;12.20;99.90
33207;DHT22;19565;46.602;11.534;2022-10-31T08:55:33;12.30;99.90
33207;DHT22;19565;46.602;11.534;2022-10-31T08:58:03;12.30;99.90
33207;DHT22;19565;46.602;11.534;2022-10-31T09:00:33;12.40;99.90
33207;DHT22;19565;46.602;11.534;2022-10-31T09:03:04;12.40;99.90
33207;DHT22;19565;46.602;11.534;2022-10-31T09:05:32;12.50;99.90
33207;DHT22;19565;46.602;11.534;2022-10-31T09:08:02;12.50;99.90
33207;DHT22;19565;46.602;11.534;2022-10-31T09:10:32;12.50;99.90
33207;DHT22;19565;46.602;11.534;2022-10-31T09:13:02;12.60;99.90
33207;DHT22;19565;46.602;11.534;2022-10-31T09:15:35;12.60;99.90
33207;DHT22;19565;46.602;11.534;2022-10-31T09:18:05;12.70;99.90
33207;DHT22;19565;46.602;11.534;2022-10-31T09:20:34;12.80;99.90
33207;DHT22;19565;46.602;11.534;2022-10-31T09:23:05;12.80;99.90
33207;DHT22;19565;46.602;11.534;2022-10-31T09:25:34;12.90;99.90
33207;DHT22;19565;46.602;11.534;2022-10-31T09:28:04;12.90;99.90
33207;DHT22;19565;46.602;11.534;2022-10-31T09:30:34;12.90;99.90
33207;DHT22;19565;46.602;11.534;2022-10-31T09:33:04;13.00;99.90
33207;DHT22;19565;46.602;11.534;2022-10-31T09:35:33;13.00;99.90
33207;DHT22;19565;46.602;11.534;2022-10-31T09:38:03;13.10;99.90
33207;DHT22;19565;46.602;11.534;2022-10-31T09:40:34;13.10;99.90
33207;DHT22;19565;46.602;11.534;2022-10-31T09:43:11;13.20;99.90
33207;DHT22;19565;46.602;11.534;2022-10-31T09:45:50;13.20;99.90
33207;DHT22;19565;46.602;11.534;2022-10-31T09:48:37;13.30;99.90
33207;DHT22;19565;46.602;11.534;2022-10-31T09:51:11;13.40;99.90
33207;DHT22;19565;46.602;11.534;2022-10-31T09:53:43;13.40;99.90
33207;DHT22;19565;46.602;11.534;2022-10-31T09:56:14;13.50;99.90
33207;DHT22;19565;46.602;11.534;2022-10-31T09:58:45;13.50;99.90
33207;DHT22;19565;46.602;11.534;2022-10-31T10:01:28;13.60;99.90
33207;DHT22;19565;46.602;11.534;2022-10-31T10:04:02;13.70;99.90
33207;DHT22;19565;46.602;11.534;2022-10-31T10:06:35;13.80;99.90
33207;DHT22;19565;46.602;11.534;2022-10-31T10:09:09;13.90;99.90
33207;DHT22;19565;46.602;11.534;2022-10-31T10:11:47;14.00;99.90
33207;DHT22;19565;46.602;11.534;2022-10-31T10:14:26;14.00;99.90
33207;DHT22;19565;46.602;11.534;2022-10-31T10:17:10;14.10;99.90
33207;DHT22;19565;46.602;11.534;2022-10-31T10:19:59;14.20;99.90
33207;DHT22;19565;46.602;11.534;2022-10-31T10:22:38;14.20;99.90
33207;DHT22;19565;46.602;11.534;2022-10-31T10:25:15;14.30;99.90
33207;DHT22;19565;46.602;11.534;2022-10-31T10:27:49;14.30;99.90
33207;DHT22;19565;46.602;11.534;2022-10-31T10:30:21;14.40;99.90
33207;DHT22;19565;46.602;11.534;2022-10-31T10:32:53;14.60;99.90
33207;DHT22;19565;46.602;11.534;2022-10-31T10:35:25;14.70;99.90
33207;DHT22;19565;46.602;11.534;2022-10-31T10:37:58;14.80;99.90
33207;DHT22;19565;46.602;11.534;2022-10-31T10:40:29;14.90;99.90
33207;DHT22;19565;46.602;11.534;2022-10-31T10:43:09;14.90;99.90
33207;DHT22;19565;46.602;11.534;2022-10-31T10:45:52;15.00;99.90
33207;DHT22;19565;46.602;11.534;2022-10-31T10:48:44;15.10;99.90
33207;DHT22;19565;46.602;11.534;2022-10-31T10:51:21;15.20;99.90
33207;DHT22;19565;46.602;11.534;2022-10-31T10:54:33;15.20;99.90
33207;DHT22;19565;46.602;11.534;2022-10-31T10:57:17;15.30;99.90
33207;DHT22;19565;46.602;11.534;2022-10-31T10:59:47;15.40;99.90
33207;DHT22;19565;46.602;11.534;2022-10-31T11:02:17;15.40;99.90
33207;DHT22;19565;46.602;11.534;2022-10-31T11:04:51;15.40;99.90
33207;DHT22;19565;46.602;11.534;2022-10-31T11:07:19;15.40;99.90
33207;DHT22;19565;46.602;11.534;2022-10-31T11:09:47;15.40;99.90
33207;DHT22;19565;46.602;11.534;2022-10-31T11:12:20;15.40;99.90
33207;DHT22;19565;46.602;11.534;2022-10-31T11:14:51;15.50;99.90
33207;DHT22;19565;46.602;11.534;2022-10-31T11:17:25;15.50;99.90
33207;DHT22;19565;46.602;11.534;2022-10-31T11:20:20;15.60;99.90
33207;DHT22;19565;46.602;11.534;2022-10-31T11:23:01;15.60;99.90
33207;DHT22;19565;46.602;11.534;2022-10-31T11:25:30;15.70;99.90
33207;DHT22;19565;46.602;11.534;2022-10-31T11:28:03;15.70;99.90
33207;DHT22;19565;46.602;11.534;2022-10-31T11:30:37;15.70;99.90
33207;DHT22;19565;46.602;11.534;2022-10-31T11:33:16;15.80;99.80
33207;DHT22;19565;46.602;11.534;2022-10-31T11:35:47;15.90;99.90
33207;DHT22;19565;46.602;11.534;2022-10-31T11:38:24;15.90;99.90
33207;DHT22;19565;46.602;11.534;2022-10-31T11:40:56;16.00;99.90
33207;DHT22;19565;46.602;11.534;2022-10-31T11:43:25;16.00;99.80
33207;DHT22;19565;46.602;11.534;2022-10-31T11:45:54;16.00;99.70
33207;DHT22;19565;46.602;11.534;2022-10-31T11:48:23;16.10;99.90
33207;DHT22;19565;46.602;11.534;2022-10-31T11:50:55;16.10;99.90
33207;DHT22;19565;46.602;11.534;2022-10-31T11:53:28;16.10;99.90
33207;DHT22;19565;46.602;11.534;2022-10-31T11:56:03;16.10;99.80
33207;DHT22;19565;46.602;11.534;2022-10-31T11:58:32;16.10;99.90
33207;DHT22;19565;46.602;11.534;2022-10-31T12:01:00;16.20;99.90
33207;DHT22;19565;46.602;11.534;2022-10-31T12:03:41;16.20;99.90
33207;DHT22;19565;46.602;11.534;2022-10-31T12:06:14;16.20;99.90
33207;DHT22;19565;46.602;11.534;2022-10-31T12:08:44;16.30;99.90
33207;DHT22;19565;46.602;11.534;2022-10-31T12:11:28;16.30;99.90
33207;DHT22;19565;46.602;11.534;2022-10-31T12:14:10;16.30;99.90
33207;DHT22;19565;46.602;11.534;2022-10-31T12:16:48;16.30;99.90
33207;DHT22;19565;46.602;11.534;2022-10-31T12:19:25;16.30;99.90
33207;DHT22;19565;46.602;11.534;2022-10-31T12:22:11;16.30;99.90
33207;DHT22;19565;46.602;11.534;2022-10-31T12:24:52;16.30;99.90
33207;DHT22;19565;46.602;11.534;2022-10-31T12:27:33;16.30;99.90
33207;DHT22;19565;46.602;11.534;2022-10-31T12:30:17;16.30;99.90
33207;DHT22;19565;46.602;11.534;2022-10-31T12:33:14;16.30;99.90
33207;DHT22;19565;46.602;11.534;2022-10-31T12:35:54;16.30;99.90
33207;DHT22;19565;46.602;11.534;2022-10-31T12:38:49;16.30;99.90
33207;DHT22;19565;46.602;11.534;2022-10-31T12:41:31;16.40;99.90
33207;DHT22;19565;46.602;11.534;2022-10-31T12:44:06;16.40;99.90
33207;DHT22;19565;46.602;11.534;2022-10-31T12:46:50;16.40;99.90
33207;DHT22;19565;46.602;11.534;2022-10-31T12:49:32;16.40;99.90
33207;DHT22;19565;46.602;11.534;2022-10-31T12:52:18;16.40;99.90
33207;DHT22;19565;46.602;11.534;2022-10-31T12:54:58;16.50;99.90
33207;DHT22;19565;46.602;11.534;2022-10-31T12:57:32;16.50;99.90
33207;DHT22;19565;46.602;11.534;2022-10-31T13:00:05;16.50;99.90
33207;DHT22;19565;46.602;11.534;2022-10-31T13:02:41;16.50;99.90
33207;DHT22;19565;46.602;11.534;2022-10-31T13:05:16;16.60;99.90
33207;DHT22;19565;46.602;11.534;2022-10-31T13:07:48;16.60;99.90
33207;DHT22;19565;46.602;11.534;2022-10-31T13:10:24;16.60;99.90
33207;DHT22;19565;46.602;11.534;2022-10-31T13:12:57;16.60;99.90
33207;DHT22;19565;46.602;11.534;2022-10-31T13:15:32;16.60;99.90
33207;DHT22;19565;46.602;11.534;2022-10-31T13:18:06;16.60;99.90
33207;DHT22;19565;46.602;11.534;2022-10-31T13:20:41;16.60;99.90
33207;DHT22;19565;46.602;11.534;2022-10-31T13:23:12;16.60;99.90
33207;DHT22;19565;46.602;11.534;2022-10-31T13:26:09;16.60;99.90
33207;DHT22;19565;46.602;11.534;2022-10-31T13:28:41;16.60;99.90
33207;DHT22;19565;46.602;11.534;2022-10-31T13:31:12;16.60;99.90
33207;DHT22;19565;46.602;11.534;2022-10-31T13:33:44;16.60;99.90
33207;DHT22;19565;46.602;11.534;2022-10-31T13:36:21;16.70;99.90
33207;DHT22;19565;46.602;11.534;2022-10-31T13:38:53;16.70;99.90
33207;DHT22;19565;46.602;11.534;2022-10-31T13:41:33;16.70;99.90
33207;DHT22;19565;46.602;11.534;2022-10-31T13:44:10;16.70;99.90
33207;DHT22;19565;46.602;11.534;2022-10-31T13:46:41;16.70;99.90
33207;DHT22;19565;46.602;11.534;2022-10-31T13:49:36;16.70;99.90
33207;DHT22;19565;46.602;11.534;2022-10-31T13:52:23;16.70;99.90
33207;DHT22;19565;46.602;11.534;2022-10-31T13:54:53;16.70;99.90
33207;DHT22;19565;46.602;11.534;2022-10-31T13:57:30;16.70;99.90
33207;DHT22;19565;46.602;11.534;2022-10-31T14:00:03;16.80;99.90
33207;DHT22;19565;46.602;11.534;2022-10-31T14:02:35;16.70;99.90
33207;DHT22;19565;46.602;11.534;2022-10-31T14:05:06;16.70;99.90
33207;DHT22;19565;46.602;11.534;2022-10-31T14:07:47;16.60;99.90
33207;DHT22;19565;46.602;11.534;2022-10-31T14:10:25;16.70;99.90
33207;DHT22;19565;46.602;11.534;2022-10-31T14:13:05;16.60;99.90
33207;DHT22;19565;46.602;11.534;2022-10-31T14:15:36;16.60;99.90
33207;DHT22;19565;46.602;11.534;2022-10-31T14:18:06;16.60;99.90
33207;DHT22;19565;46.602;11.534;2022-10-31T14:20:38;16.50;99.90
33207;DHT22;19565;46.602;11.534;2022-10-31T14:23:12;16.50;99.90
33207;DHT22;19565;46.602;11.534;2022-10-31T14:25:41;16.50;99.90
33207;DHT22;19565;46.602;11.534;2022-10-31T14:28:22;16.50;99.90
33207;DHT22;19565;46.602;11.534;2022-10-31T14:30:59;16.50;99.90
33207;DHT22;19565;46.602;11.534;2022-10-31T14:33:29;16.40;99.90
33207;DHT22;19565;46.602;11.534;2022-10-31T14:36:03;16.40;99.90
33207;DHT22;19565;46.602;11.534;2022-10-31T14:38:47;16.40;99.90
33207;DHT22;19565;46.602;11.534;2022-10-31T14:41:39;16.40;99.90
33207;DHT22;19565;46.602;11.534;2022-10-31T14:44:24;16.40;99.90
33207;DHT22;19565;46.602;11.534;2022-10-31T14:47:02;16.30;99.90
33207;DHT22;19565;46.602;11.534;2022-10-31T14:49:55;16.30;99.90
33207;DHT22;19565;46.602;11.534;2022-10-31T14:52:25;16.20;99.90
33207;DHT22;19565;46.602;11.534;2022-10-31T14:54:55;16.20;99.90
33207;DHT22;19565;46.602;11.534;2022-10-31T14:57:28;16.20;99.90
33207;DHT22;19565;46.602;11.534;2022-10-31T15:00:01;16.20;99.90
33207;DHT22;19565;46.602;11.534;2022-10-31T15:02:33;16.10;99.90
33207;DHT22;19565;46.602;11.534;2022-10-31T15:05:07;16.10;99.90
33207;DHT22;19565;46.602;11.534;2022-10-31T15:07:35;16.10;99.90
33207;DHT22;19565;46.602;11.534;2022-10-31T15:10:20;16.10;99.90
33207;DHT22;19565;46.602;11.534;2022-10-31T15:12:48;16.00;99.90
33207;DHT22;19565;46.602;11.534;2022-10-31T15:15:20;16.00;99.90
33207;DHT22;19565;46.602;11.534;2022-10-31T15:17:51;16.00;99.90
33207;DHT22;19565;46.602;11.534;2022-10-31T15:20:22;15.90;99.90
33207;DHT22;19565;46.602;11.534;2022-10-31T15:22:51;15.90;99.90
33207;DHT22;19565;46.602;11.534;2022-10-31T15:25:21;15.90;99.90
33207;DHT22;19565;46.602;11.534;2022-10-31T15:27:50;15.90;99.90
33207;DHT22;19565;46.602;11.534;2022-10-31T15:30:24;15.90;99.90
33207;DHT22;19565;46.602;11.534;2022-10-31T15:32:52;15.90;99.90
33207;DHT22;19565;46.602;11.534;2022-10-31T15:35:26;15.80;99.90
33207;DHT22;19565;46.602;11.534;2022-10-31T15:37:55;15.80;99.90
33207;DHT22;19565;46.602;11.534;2022-10-31T15:40:26;15.80;99.90
33207;DHT22;19565;46.602;11.534;2022-10-31T15:42:56;15.80;99.90
33207;DHT22;19565;46.602;11.534;2022-10-31T15:45:27;15.70;99.90
33207;DHT22;19565;46.602;11.534;2022-10-31T15:47:58;15.70;99.90
33207;DHT22;19565;46.602;11.534;2022-10-31T15:50:31;15.70;99.90